sensor_id;sensor_type;location;lat;lon;timestamp;temperature;humidity
37788;DHT22;23627;53.302;-6.362;2023-02-14T00:01:24;6.80;99.90
37788;DHT22;23627;53.302;-6.362;2023-02-14T00:03:49;6.80;99.90
37788;DHT22;23627;53.302;-6.362;2023-02-14T00:06:15;6.80;99.90
37788;DHT22;23627;53.302;-6.362;2023-02-14T00:08:41;6.80;99.90
37788;DHT22;23627;53.302;-6.362;2023-02-14T00:11:09;6.80;99.90
37788;DHT22;23627;53.302;-6.362;2023-02-14T00:13:35;6.80;99.90
37788;DHT22;23627;53.302;-6.362;2023-02-14T00:16:00;6.80;99.90
37788;DHT22;23627;53.302;-6.362;2023-02-14T00:18:27;6.80;99.90
37788;DHT22;23627;53.302;-6.362;2023-02-14T00:21:13;6.80;99.90
37788;DHT22;23627;53.302;-6.362;2023-02-14T00:23:38;6.80;99.90
37788;DHT22;23627;53.302;-6.362;2023-02-14T00:26:04;6.80;99.90
37788;DHT22;23627;53.302;-6.362;2023-02-14T00:28:30;6.80;99.90
37788;DHT22;23627;53.302;-6.362;2023-02-14T00:30:56;6.80;99.90
37788;DHT22;23627;53.302;-6.362;2023-02-14T00:33:21;6.80;99.90
37788;DHT22;23627;53.302;-6.362;2023-02-14T00:35:47;6.80;99.90
37788;DHT22;23627;53.302;-6.362;2023-02-14T00:38:13;6.80;99.90
37788;DHT22;23627;53.302;-6.362;2023-02-14T00:40:38;6.80;99.90
37788;DHT22;23627;53.302;-6.362;2023-02-14T00:43:04;6.80;99.90
37788;DHT22;23627;53.302;-6.362;2023-02-14T00:45:29;6.80;99.90
37788;DHT22;23627;53.302;-6.362;2023-02-14T00:47:55;6.80;99.90
37788;DHT22;23627;53.302;-6.362;2023-02-14T00:50:21;6.80;99.90
37788;DHT22;23627;53.302;-6.362;2023-02-14T00:52:46;6.90;99.90
37788;DHT22;23627;53.302;-6.362;2023-02-14T00:55:12;6.90;99.90
37788;DHT22;23627;53.302;-6.362;2023-02-14T00:57:38;6.90;99.90
37788;DHT22;23627;53.302;-6.362;2023-02-14T01:00:04;6.90;99.90
37788;DHT22;23627;53.302;-6.362;2023-02-14T01:02:29;6.90;99.90
37788;DHT22;23627;53.302;-6.362;2023-02-14T01:04:55;6.90;99.90
37788;DHT22;23627;53.302;-6.362;2023-02-14T01:07:21;6.90;99.90
37788;DHT22;23627;53.302;-6.362;2023-02-14T01:09:47;6.90;99.90
37788;DHT22;23627;53.302;-6.362;2023-02-14T01:12:12;6.90;99.90
37788;DHT22;23627;53.302;-6.362;2023-02-14T01:14:38;6.90;99.90
37788;DHT22;23627;53.302;-6.362;2023-02-14T01:17:04;7.00;99.90
37788;DHT22;23627;53.302;-6.362;2023-02-14T01:19:30;7.00;99.90
37788;DHT22;23627;53.302;-6.362;2023-02-14T01:21:55;7.00;99.90
37788;DHT22;23627;53.302;-6.362;2023-02-14T01:24:21;7.00;99.90
37788;DHT22;23627;53.302;-6.362;2023-02-14T01:26:47;7.00;99.90
37788;DHT22;23627;53.302;-6.362;2023-02-14T01:29:12;7.00;99.90
37788;DHT22;23627;53.302;-6.362;2023-02-14T01:31:38;7.00;99.90
37788;DHT22;23627;53.302;-6.362;2023-02-14T01:34:04;7.00;99.90
37788;DHT22;23627;53.302;-6.362;2023-02-14T01:36:34;7.00;99.90
37788;DHT22;23627;53.302;-6.362;2023-02-14T01:39:02;7.00;99.90
37788;DHT22;23627;53.302;-6.362;2023-02-14T01:41:29;7.00;99.90
37788;DHT22;23627;53.302;-6.362;2023-02-14T01:43:59;7.00;99.90
37788;DHT22;23627;53.302;-6.362;2023-02-14T01:46:35;7.00;99.90
37788;DHT22;23627;53.302;-6.362;2023-02-14T01:49:07;7.10;99.90
37788;DHT22;23627;53.302;-6.362;2023-02-14T01:51:33;7.10;99.90
37788;DHT22;23627;53.302;-6.362;2023-02-14T01:54:00;7.10;99.90
37788;DHT22;23627;53.302;-6.362;2023-02-14T01:56:28;7.10;99.90
37788;DHT22;23627;53.302;-6.362;2023-02-14T01:58:56;7.10;99.90
37788;DHT22;23627;53.302;-6.362;2023-02-14T02:01:23;7.10;99.90
37788;DHT22;23627;53.302;-6.362;2023-02-14T02:03:53;7.10;99.90
37788;DHT22;23627;53.302;-6.362;2023-02-14T02:06:24;7.10;99.90
37788;DHT22;23627;53.302;-6.362;2023-02-14T02:08:58;7.10;99.90
37788;DHT22;23627;53.302;-6.362;2023-02-14T02:11:26;7.10;99.90
37788;DHT22;23627;53.302;-6.362;2023-02-14T02:13:52;7.10;99.90
37788;DHT22;23627;53.302;-6.362;2023-02-14T02:49:03;7.10;99.90
37788;DHT22;23627;53.302;-6.362;2023-02-14T02:51:38;7.10;99.90
37788;DHT22;23627;53.302;-6.362;2023-02-14T02:54:32;7.10;99.90
37788;DHT22;23627;53.302;-6.362;2023-02-14T02:57:00;7.10;99.90
37788;DHT22;23627;53.302;-6.362;2023-02-14T02:59:30;7.10;99.90
37788;DHT22;23627;53.302;-6.362;2023-02-14T03:02:10;7.10;99.90
37788;DHT22;23627;53.302;-6.362;2023-02-14T03:04:38;7.10;99.90
37788;DHT22;23627;53.302;-6.362;2023-02-14T03:07:36;7.10;99.90
37788;DHT22;23627;53.302;-6.362;2023-02-14T03:10:07;7.10;99.90
37788;DHT22;23627;53.302;-6.362;2023-02-14T03:15:16;7.10;99.90
37788;DHT22;23627;53.302;-6.362;2023-02-14T03:20:15;7.10;99.90
37788;DHT22;23627;53.302;-6.362;2023-02-14T03:22:48;7.10;99.90
37788;DHT22;23627;53.302;-6.362;2023-02-14T03:25:26;7.10;99.90
37788;DHT22;23627;53.302;-6.362;2023-02-14T03:28:01;7.10;99.90
37788;DHT22;23627;53.302;-6.362;2023-02-14T03:32:59;7.10;99.90
37788;DHT22;23627;53.302;-6.362;2023-02-14T03:35:31;7.10;99.90
37788;DHT22;23627;53.302;-6.362;2023-02-14T03:40:58;7.10;99.90
37788;DHT22;23627;53.302;-6.362;2023-02-14T03:43:24;7.10;99.90
37788;DHT22;23627;53.302;-6.362;2023-02-14T03:45:53;7.10;99.90
37788;DHT22;23627;53.302;-6.362;2023-02-14T03:48:21;7.10;99.90
37788;DHT22;23627;53.302;-6.362;2023-02-14T03:50:48;7.10;99.90
37788;DHT22;23627;53.302;-6.362;2023-02-14T03:53:15;7.10;99.90
37788;DHT22;23627;53.302;-6.362;2023-02-14T03:55:45;7.10;99.90
37788;DHT22;23627;53.302;-6.362;2023-02-14T03:58:33;7.10;99.90
37788;DHT22;23627;53.302;-6.362;2023-02-14T04:01:05;7.10;99.90
37788;DHT22;23627;53.302;-6.362;2023-02-14T04:03:33;7.10;99.90
37788;DHT22;23627;53.302;-6.362;2023-02-14T04:05:59;7.10;99.90
37788;DHT22;23627;53.302;-6.362;2023-02-14T04:08:26;7.10;99.90
37788;DHT22;23627;53.302;-6.362;2023-02-14T04:10:52;7.10;99.90
37788;DHT22;23627;53.302;-6.362;2023-02-14T04:13:19;7.20;99.90
37788;DHT22;23627;53.302;-6.362;2023-02-14T04:15:44;7.20;99.90
37788;DHT22;23627;53.302;-6.362;2023-02-14T04:18:10;7.20;99.90
37788;DHT22;23627;53.302;-6.362;2023-02-14T04:20:54;7.20;99.90
37788;DHT22;23627;53.302;-6.362;2023-02-14T04:23:20;7.20;99.90
37788;DHT22;23627;53.302;-6.362;2023-02-14T04:25:46;7.20;99.90
37788;DHT22;23627;53.302;-6.362;2023-02-14T04:28:11;7.20;99.90
37788;DHT22;23627;53.302;-6.362;2023-02-14T04:30:37;7.20;99.90
37788;DHT22;23627;53.302;-6.362;2023-02-14T04:33:03;7.20;99.90
37788;DHT22;23627;53.302;-6.362;2023-02-14T04:35:29;7.20;99.90
37788;DHT22;23627;53.302;-6.362;2023-02-14T04:37:55;7.30;99.90
37788;DHT22;23627;53.302;-6.362;2023-02-14T04:40:20;7.30;99.90
37788;DHT22;23627;53.302;-6.362;2023-02-14T04:42:46;7.30;99.90
37788;DHT22;23627;53.302;-6.362;2023-02-14T04:45:12;7.30;99.90
37788;DHT22;23627;53.302;-6.362;2023-02-14T04:47:38;7.30;99.90
37788;DHT22;23627;53.302;-6.362;2023-02-14T04:50:04;7.40;99.90
37788;DHT22;23627;53.302;-6.362;2023-02-14T04:52:30;7.40;99.90
37788;DHT22;23627;53.302;-6.362;2023-02-14T04:54:56;7.40;99.90
37788;DHT22;23627;53.302;-6.362;2023-02-14T04:57:22;7.40;99.90
37788;DHT22;23627;53.302;-6.362;2023-02-14T04:59:48;7.40;99.90
37788;DHT22;23627;53.302;-6.362;2023-02-14T05:02:13;7.40;99.90
37788;DHT22;23627;53.302;-6.362;2023-02-14T05:04:39;7.40;99.90
37788;DHT22;23627;53.302;-6.362;2023-02-14T05:07:05;7.50;99.90
37788;DHT22;23627;53.302;-6.362;2023-02-14T05:09:31;7.50;99.90
37788;DHT22;23627;53.302;-6.362;2023-02-14T05:11:56;7.50;99.90
37788;DHT22;23627;53.302;-6.362;2023-02-14T05:14:22;7.50;99.90
37788;DHT22;23627;53.302;-6.362;2023-02-14T05:16:50;7.50;99.90
37788;DHT22;23627;53.302;-6.362;2023-02-14T05:19:16;7.60;99.90
37788;DHT22;23627;53.302;-6.362;2023-02-14T05:21:42;7.60;99.90
37788;DHT22;23627;53.302;-6.362;2023-02-14T05:24:07;7.60;99.90
37788;DHT22;23627;53.302;-6.362;2023-02-14T05:26:33;7.60;99.90
37788;DHT22;23627;53.302;-6.362;2023-02-14T05:28:59;7.60;99.90
37788;DHT22;23627;53.302;-6.362;2023-02-14T05:31:24;7.60;99.90
37788;DHT22;23627;53.302;-6.362;2023-02-14T05:33:50;7.60;99.90
37788;DHT22;23627;53.302;-6.362;2023-02-14T05:36:16;7.70;99.90
37788;DHT22;23627;53.302;-6.362;2023-02-14T05:38:41;7.70;99.90
37788;DHT22;23627;53.302;-6.362;2023-02-14T05:41:07;7.70;99.90
37788;DHT22;23627;53.302;-6.362;2023-02-14T05:43:33;7.70;99.90
37788;DHT22;23627;53.302;-6.362;2023-02-14T05:45:59;7.70;99.90
37788;DHT22;23627;53.302;-6.362;2023-02-14T05:48:25;7.70;99.90
37788;DHT22;23627;53.302;-6.362;2023-02-14T05:50:51;7.70;99.90
37788;DHT22;23627;53.302;-6.362;2023-02-14T05:53:16;7.70;99.90
37788;DHT22;23627;53.302;-6.362;2023-02-14T05:55:42;7.70;99.90
37788;DHT22;23627;53.302;-6.362;2023-02-14T05:58:08;7.70;99.90
37788;DHT22;23627;53.302;-6.362;2023-02-14T06:00:34;7.70;99.90
37788;DHT22;23627;53.302;-6.362;2023-02-14T06:03:01;7.70;99.90
37788;DHT22;23627;53.302;-6.362;2023-02-14T06:05:27;7.70;99.90
37788;DHT22;23627;53.302;-6.362;2023-02-14T06:07:53;7.70;99.90
37788;DHT22;23627;53.302;-6.362;2023-02-14T06:10:19;7.70;99.90
37788;DHT22;23627;53.302;-6.362;2023-02-14T06:12:49;7.70;99.90
37788;DHT22;23627;53.302;-6.362;2023-02-14T06:15:15;7.70;99.90
37788;DHT22;23627;53.302;-6.362;2023-02-14T06:17:41;7.70;99.90
37788;DHT22;23627;53.302;-6.362;2023-02-14T06:20:07;7.70;99.90
37788;DHT22;23627;53.302;-6.362;2023-02-14T06:22:38;7.70;99.90
37788;DHT22;23627;53.302;-6.362;2023-02-14T06:25:04;7.70;99.90
37788;DHT22;23627;53.302;-6.362;2023-02-14T06:27:30;7.70;99.90
37788;DHT22;23627;53.302;-6.362;2023-02-14T06:29:56;7.70;99.90
37788;DHT22;23627;53.302;-6.362;2023-02-14T06:32:22;7.70;99.90
37788;DHT22;23627;53.302;-6.362;2023-02-14T06:34:48;7.70;99.90
37788;DHT22;23627;53.302;-6.362;2023-02-14T06:37:16;7.70;99.90
37788;DHT22;23627;53.302;-6.362;2023-02-14T06:39:42;7.70;99.90
37788;DHT22;23627;53.302;-6.362;2023-02-14T06:42:07;7.70;99.90
37788;DHT22;23627;53.302;-6.362;2023-02-14T06:44:41;7.80;99.90
37788;DHT22;23627;53.302;-6.362;2023-02-14T06:47:25;7.80;99.90
37788;DHT22;23627;53.302;-6.362;2023-02-14T06:58:13;7.90;99.90
37788;DHT22;23627;53.302;-6.362;2023-02-14T07:00:39;7.90;99.90
37788;DHT22;23627;53.302;-6.362;2023-02-14T07:03:05;8.00;99.90
37788;DHT22;23627;53.302;-6.362;2023-02-14T07:05:31;8.00;99.90
37788;DHT22;23627;53.302;-6.362;2023-02-14T07:07:57;8.00;99.90
37788;DHT22;23627;53.302;-6.362;2023-02-14T07:10:22;8.10;99.90
37788;DHT22;23627;53.302;-6.362;2023-02-14T07:12:48;8.10;99.90
37788;DHT22;23627;53.302;-6.362;2023-02-14T07:15:14;8.10;99.90
37788;DHT22;23627;53.302;-6.362;2023-02-14T07:17:40;8.10;99.90
37788;DHT22;23627;53.302;-6.362;2023-02-14T07:20:06;8.20;99.90
37788;DHT22;23627;53.302;-6.362;2023-02-14T07:22:32;8.20;99.90
37788;DHT22;23627;53.302;-6.362;2023-02-14T07:24:58;8.20;99.90
37788;DHT22;23627;53.302;-6.362;2023-02-14T07:27:24;8.20;99.90
37788;DHT22;23627;53.302;-6.362;2023-02-14T07:29:50;8.30;99.90
37788;DHT22;23627;53.302;-6.362;2023-02-14T07:32:17;8.30;99.90
37788;DHT22;23627;53.302;-6.362;2023-02-14T07:34:43;8.30;99.90
37788;DHT22;23627;53.302;-6.362;2023-02-14T07:37:08;8.30;99.90
37788;DHT22;23627;53.302;-6.362;2023-02-14T07:39:34;8.40;99.90
37788;DHT22;23627;53.302;-6.362;2023-02-14T07:42:02;8.40;99.90
37788;DHT22;23627;53.302;-6.362;2023-02-14T07:44:28;8.40;99.90
37788;DHT22;23627;53.302;-6.362;2023-02-14T07:46:54;8.40;99.90
37788;DHT22;23627;53.302;-6.362;2023-02-14T07:49:25;8.50;99.90
37788;DHT22;23627;53.302;-6.362;2023-02-14T07:51:52;8.50;99.90
37788;DHT22;23627;53.302;-6.362;2023-02-14T07:54:31;8.50;99.90
37788;DHT22;23627;53.302;-6.362;2023-02-14T07:57:16;8.50;99.90
37788;DHT22;23627;53.302;-6.362;2023-02-14T08:00:04;8.50;99.90
37788;DHT22;23627;53.302;-6.362;2023-02-14T08:02:31;8.50;99.90
37788;DHT22;23627;53.302;-6.362;2023-02-14T08:04:56;8.60;99.90
37788;DHT22;23627;53.302;-6.362;2023-02-14T08:07:22;8.60;99.90
37788;DHT22;23627;53.302;-6.362;2023-02-14T08:09:49;8.60;99.90
37788;DHT22;23627;53.302;-6.362;2023-02-14T08:12:14;8.60;99.90
37788;DHT22;23627;53.302;-6.362;2023-02-14T08:14:59;8.70;99.90
37788;DHT22;23627;53.302;-6.362;2023-02-14T08:17:44;8.70;99.90
37788;DHT22;23627;53.302;-6.362;2023-02-14T08:20:10;8.70;99.90
37788;DHT22;23627;53.302;-6.362;2023-02-14T08:22:40;8.70;99.90
37788;DHT22;23627;53.302;-6.362;2023-02-14T08:25:06;8.80;99.90
37788;DHT22;23627;53.302;-6.362;2023-02-14T08:31:24;8.90;99.90
37788;DHT22;23627;53.302;-6.362;2023-02-14T08:33:50;8.90;99.90
37788;DHT22;23627;53.302;-6.362;2023-02-14T08:36:20;9.00;99.90
37788;DHT22;23627;53.302;-6.362;2023-02-14T08:39:00;9.00;99.90
37788;DHT22;23627;53.302;-6.362;2023-02-14T08:41:30;9.10;99.90
37788;DHT22;23627;53.302;-6.362;2023-02-14T08:43:56;9.10;99.90
37788;DHT22;23627;53.302;-6.362;2023-02-14T08:46:42;9.20;99.90
37788;DHT22;23627;53.302;-6.362;2023-02-14T08:49:15;9.20;99.90
37788;DHT22;23627;53.302;-6.362;2023-02-14T08:51:50;9.30;99.90
37788;DHT22;23627;53.302;-6.362;2023-02-14T08:54:16;9.30;99.90
37788;DHT22;23627;53.302;-6.362;2023-02-14T08:56:42;9.40;99.90
37788;DHT22;23627;53.302;-6.362;2023-02-14T08:59:07;9.40;99.90
37788;DHT22;23627;53.302;-6.362;2023-02-14T09:01:34;9.40;99.90
37788;DHT22;23627;53.302;-6.362;2023-02-14T09:10:37;9.50;99.90
37788;DHT22;23627;53.302;-6.362;2023-02-14T09:13:04;9.50;99.90
37788;DHT22;23627;53.302;-6.362;2023-02-14T09:15:31;9.60;99.90
37788;DHT22;23627;53.302;-6.362;2023-02-14T09:18:00;9.60;99.90
37788;DHT22;23627;53.302;-6.362;2023-02-14T09:20:34;9.60;99.90
37788;DHT22;23627;53.302;-6.362;2023-02-14T09:23:31;9.60;99.90
37788;DHT22;23627;53.302;-6.362;2023-02-14T09:26:16;9.70;99.90
37788;DHT22;23627;53.302;-6.362;2023-02-14T09:28:48;9.80;99.90
37788;DHT22;23627;53.302;-6.362;2023-02-14T09:31:26;9.80;99.90
37788;DHT22;23627;53.302;-6.362;2023-02-14T09:33:59;9.90;99.90
37788;DHT22;23627;53.302;-6.362;2023-02-14T09:36:47;9.90;99.90
37788;DHT22;23627;53.302;-6.362;2023-02-14T09:39:38;9.90;99.90
37788;DHT22;23627;53.302;-6.362;2023-02-14T10:27:03;11.30;99.90
37788;DHT22;23627;53.302;-6.362;2023-02-14T10:29:31;11.30;99.90
37788;DHT22;23627;53.302;-6.362;2023-02-14T10:34:53;11.50;99.90
37788;DHT22;23627;53.302;-6.362;2023-02-14T11:22:09;12.30;99.90
37788;DHT22;23627;53.302;-6.362;2023-02-14T11:24:46;12.30;99.90
37788;DHT22;23627;53.302;-6.362;2023-02-14T12:30:55;13.20;99.90
37788;DHT22;23627;53.302;-6.362;2023-02-14T12:33:31;13.30;99.90
37788;DHT22;23627;53.302;-6.362;2023-02-14T12:45:07;13.20;99.90
37788;DHT22;23627;53.302;-6.362;2023-02-14T12:52:15;13.20;99.90
37788;DHT22;23627;53.302;-6.362;2023-02-14T12:54:48;13.20;99.90
37788;DHT22;23627;53.302;-6.362;2023-02-14T12:59:58;13.30;99.90
37788;DHT22;23627;53.302;-6.362;2023-02-14T13:02:34;13.30;99.90
37788;DHT22;23627;53.302;-6.362;2023-02-14T13:18:12;13.50;99.90
37788;DHT22;23627;53.302;-6.362;2023-02-14T13:20:58;13.50;99.90
37788;DHT22;23627;53.302;-6.362;2023-02-14T13:23:36;13.60;99.90
37788;DHT22;23627;53.302;-6.362;2023-02-14T13:26:08;13.70;99.90
37788;DHT22;23627;53.302;-6.362;2023-02-14T13:28:36;13.80;99.90
37788;DHT22;23627;53.302;-6.362;2023-02-14T13:31:02;13.90;99.90
37788;DHT22;23627;53.302;-6.362;2023-02-14T13:33:35;14.00;99.90
37788;DHT22;23627;53.302;-6.362;2023-02-14T13:36:06;14.10;99.90
37788;DHT22;23627;53.302;-6.362;2023-02-14T13:41:39;14.20;99.90
37788;DHT22;23627;53.302;-6.362;2023-02-14T13:47:21;14.30;99.90
37788;DHT22;23627;53.302;-6.362;2023-02-14T13:49:49;14.40;99.90
37788;DHT22;23627;53.302;-6.362;2023-02-14T13:52:37;14.40;99.90
37788;DHT22;23627;53.302;-6.362;2023-02-14T13:55:02;14.40;99.90
37788;DHT22;23627;53.302;-6.362;2023-02-14T14:02:45;14.30;99.90
37788;DHT22;23627;53.302;-6.362;2023-02-14T14:10:49;14.10;99.90
37788;DHT22;23627;53.302;-6.362;2023-02-14T14:16:18;14.00;99.90
37788;DHT22;23627;53.302;-6.362;2023-02-14T14:18:45;14.00;99.90
37788;DHT22;23627;53.302;-6.362;2023-02-14T14:26:46;13.90;99.90
37788;DHT22;23627;53.302;-6.362;2023-02-14T14:32:12;13.90;99.90
37788;DHT22;23627;53.302;-6.362;2023-02-14T14:37:31;13.90;99.90
37788;DHT22;23627;53.302;-6.362;2023-02-14T14:39:58;13.90;99.90
37788;DHT22;23627;53.302;-6.362;2023-02-14T14:42:25;13.90;99.90
37788;DHT22;23627;53.302;-6.362;2023-02-14T14:44:58;13.90;99.90
37788;DHT22;23627;53.302;-6.362;2023-02-14T14:47:37;13.90;99.90
37788;DHT22;23627;53.302;-6.362;2023-02-14T14:50:06;13.90;99.90
37788;DHT22;23627;53.302;-6.362;2023-02-14T14:52:39;13.90;99.90
37788;DHT22;23627;53.302;-6.362;2023-02-14T14:55:06;13.90;99.90
37788;DHT22;23627;53.302;-6.362;2023-02-14T14:57:36;13.80;99.90
37788;DHT22;23627;53.302;-6.362;2023-02-14T15:00:16;13.80;99.90
37788;DHT22;23627;53.302;-6.362;2023-02-14T15:02:42;13.80;99.90
37788;DHT22;23627;53.302;-6.362;2023-02-14T15:05:22;13.80;99.90
37788;DHT22;23627;53.302;-6.362;2023-02-14T15:07:48;13.80;99.90
37788;DHT22;23627;53.302;-6.362;2023-02-14T15:10:21;13.80;99.90
37788;DHT22;23627;53.302;-6.362;2023-02-14T15:12:47;13.80;99.90
37788;DHT22;23627;53.302;-6.362;2023-02-14T15:15:32;13.80;99.90
37788;DHT22;23627;53.302;-6.362;2023-02-14T15:17:58;13.70;99.90
37788;DHT22;23627;53.302;-6.362;2023-02-14T15:20:23;13.80;99.90
37788;DHT22;23627;53.302;-6.362;2023-02-14T15:22:50;13.80;99.90
37788;DHT22;23627;53.302;-6.362;2023-02-14T15:25:20;13.70;99.90
37788;DHT22;23627;53.302;-6.362;2023-02-14T15:27:46;13.70;99.90
37788;DHT22;23627;53.302;-6.362;2023-02-14T15:32:46;13.70;99.90
37788;DHT22;23627;53.302;-6.362;2023-02-14T15:37:57;13.70;99.90
37788;DHT22;23627;53.302;-6.362;2023-02-14T15:40:27;13.70;99.90
37788;DHT22;23627;53.302;-6.362;2023-02-14T15:42:57;13.80;99.90
37788;DHT22;23627;53.302;-6.362;2023-02-14T15:46:25;13.80;99.90
37788;DHT22;23627;53.302;-6.362;2023-02-14T15:48:52;13.80;99.90
37788;DHT22;23627;53.302;-6.362;2023-02-14T15:51:19;13.80;99.90
37788;DHT22;23627;53.302;-6.362;2023-02-14T15:53:53;13.70;99.90
37788;DHT22;23627;53.302;-6.362;2023-02-14T15:56:26;13.80;99.90
37788;DHT22;23627;53.302;-6.362;2023-02-14T15:59:06;13.80;99.90
37788;DHT22;23627;53.302;-6.362;2023-02-14T16:01:32;13.90;99.90
37788;DHT22;23627;53.302;-6.362;2023-02-14T16:03:59;14.00;99.90
37788;DHT22;23627;53.302;-6.362;2023-02-14T16:06:33;14.00;99.90
37788;DHT22;23627;53.302;-6.362;2023-02-14T16:08:59;14.10;99.90
37788;DHT22;23627;53.302;-6.362;2023-02-14T16:11:29;14.10;99.90
37788;DHT22;23627;53.302;-6.362;2023-02-14T16:13:55;14.10;99.90
37788;DHT22;23627;53.302;-6.362;2023-02-14T16:16:21;14.10;99.90
37788;DHT22;23627;53.302;-6.362;2023-02-14T16:18:47;14.00;99.90
37788;DHT22;23627;53.302;-6.362;2023-02-14T16:23:46;14.00;99.90
37788;DHT22;23627;53.302;-6.362;2023-02-14T16:26:12;13.90;99.90
37788;DHT22;23627;53.302;-6.362;2023-02-14T16:28:38;13.90;99.90
37788;DHT22;23627;53.302;-6.362;2023-02-14T16:31:05;13.80;99.90
37788;DHT22;23627;53.302;-6.362;2023-02-14T16:33:35;13.80;99.90
37788;DHT22;23627;53.302;-6.362;2023-02-14T16:39:02;13.70;99.90
37788;DHT22;23627;53.302;-6.362;2023-02-14T16:41:29;13.70;99.90
37788;DHT22;23627;53.302;-6.362;2023-02-14T16:43:55;13.60;99.90
37788;DHT22;23627;53.302;-6.362;2023-02-14T16:46:22;13.50;99.90
37788;DHT22;23627;53.302;-6.362;2023-02-14T16:48:48;13.50;99.90
37788;DHT22;23627;53.302;-6.362;2023-02-14T16:51:17;13.40;99.90
37788;DHT22;23627;53.302;-6.362;2023-02-14T16:53:43;13.30;99.90
37788;DHT22;23627;53.302;-6.362;2023-02-14T16:56:14;13.30;99.90
37788;DHT22;23627;53.302;-6.362;2023-02-14T16:58:41;13.20;99.90
37788;DHT22;23627;53.302;-6.362;2023-02-14T17:01:07;13.10;99.90
37788;DHT22;23627;53.302;-6.362;2023-02-14T17:03:32;13.10;99.90
37788;DHT22;23627;53.302;-6.362;2023-02-14T17:05:58;13.00;99.90
37788;DHT22;23627;53.302;-6.362;2023-02-14T17:08:24;13.00;99.90
37788;DHT22;23627;53.302;-6.362;2023-02-14T17:10:50;12.90;99.90
37788;DHT22;23627;53.302;-6.362;2023-02-14T17:13:17;12.80;99.90
37788;DHT22;23627;53.302;-6.362;2023-02-14T17:15:43;12.70;99.90
37788;DHT22;23627;53.302;-6.362;2023-02-14T17:18:10;12.70;99.90
37788;DHT22;23627;53.302;-6.362;2023-02-14T17:20:36;12.60;99.90
37788;DHT22;23627;53.302;-6.362;2023-02-14T17:23:01;12.60;99.90
37788;DHT22;23627;53.302;-6.362;2023-02-14T17:25:27;12.50;99.90
37788;DHT22;23627;53.302;-6.362;2023-02-14T17:27:56;12.40;99.90
37788;DHT22;23627;53.302;-6.362;2023-02-14T17:30:22;12.30;99.90
37788;DHT22;23627;53.302;-6.362;2023-02-14T17:32:48;12.30;99.90
37788;DHT22;23627;53.302;-6.362;2023-02-14T17:35:16;12.20;99.90
37788;DHT22;23627;53.302;-6.362;2023-02-14T17:37:42;12.20;99.90
37788;DHT22;23627;53.302;-6.362;2023-02-14T17:40:09;12.10;99.90
37788;DHT22;23627;53.302;-6.362;2023-02-14T17:42:35;12.10;99.90
37788;DHT22;23627;53.302;-6.362;2023-02-14T17:45:04;12.00;99.90
37788;DHT22;23627;53.302;-6.362;2023-02-14T17:47:33;12.00;99.90
37788;DHT22;23627;53.302;-6.362;2023-02-14T17:50:01;11.90;99.90
37788;DHT22;23627;53.302;-6.362;2023-02-14T17:52:28;11.90;99.90
37788;DHT22;23627;53.302;-6.362;2023-02-14T17:54:54;11.80;99.90
37788;DHT22;23627;53.302;-6.362;2023-02-14T17:57:20;11.80;99.90
37788;DHT22;23627;53.302;-6.362;2023-02-14T17:59:45;11.70;99.90
37788;DHT22;23627;53.302;-6.362;2023-02-14T18:02:11;11.60;99.90
37788;DHT22;23627;53.302;-6.362;2023-02-14T18:04:37;11.60;99.90
37788;DHT22;23627;53.302;-6.362;2023-02-14T18:07:03;11.60;99.90
37788;DHT22;23627;53.302;-6.362;2023-02-14T18:09:29;11.50;99.90
37788;DHT22;23627;53.302;-6.362;2023-02-14T18:11:55;11.40;99.90
37788;DHT22;23627;53.302;-6.362;2023-02-14T18:14:20;11.40;99.90
37788;DHT22;23627;53.302;-6.362;2023-02-14T18:16:46;11.40;99.90
37788;DHT22;23627;53.302;-6.362;2023-02-14T18:19:12;11.30;99.90
37788;DHT22;23627;53.302;-6.362;2023-02-14T18:21:41;11.30;99.90
37788;DHT22;23627;53.302;-6.362;2023-02-14T18:24:07;11.20;99.90
37788;DHT22;23627;53.302;-6.362;2023-02-14T18:26:34;11.20;99.90
37788;DHT22;23627;53.302;-6.362;2023-02-14T18:29:00;11.20;99.90
37788;DHT22;23627;53.302;-6.362;2023-02-14T18:31:34;11.10;99.90
37788;DHT22;23627;53.302;-6.362;2023-02-14T18:33:59;11.10;99.90
37788;DHT22;23627;53.302;-6.362;2023-02-14T18:36:26;11.10;99.90
37788;DHT22;23627;53.302;-6.362;2023-02-14T18:38:52;11.00;99.90
37788;DHT22;23627;53.302;-6.362;2023-02-14T18:41:19;11.00;99.90
37788;DHT22;23627;53.302;-6.362;2023-02-14T18:43:45;11.00;99.90
37788;DHT22;23627;53.302;-6.362;2023-02-14T18:59:14;10.90;99.90
37788;DHT22;23627;53.302;-6.362;2023-02-14T19:01:41;10.90;99.90
37788;DHT22;23627;53.302;-6.362;2023-02-14T19:04:08;10.90;99.90
37788;DHT22;23627;53.302;-6.362;2023-02-14T19:06:38;10.90;99.90
37788;DHT22;23627;53.302;-6.362;2023-02-14T19:09:14;10.90;99.90
37788;DHT22;23627;53.302;-6.362;2023-02-14T19:11:47;10.90;99.90
37788;DHT22;23627;53.302;-6.362;2023-02-14T19:14:13;10.80;99.90
37788;DHT22;23627;53.302;-6.362;2023-02-14T19:16:42;10.80;99.90
37788;DHT22;23627;53.302;-6.362;2023-02-14T19:21:59;10.80;99.90
37788;DHT22;23627;53.302;-6.362;2023-02-14T19:24:25;10.80;99.90
37788;DHT22;23627;53.302;-6.362;2023-02-14T19:26:51;10.80;99.90
37788;DHT22;23627;53.302;-6.362;2023-02-14T19:29:18;10.80;99.90
37788;DHT22;23627;53.302;-6.362;2023-02-14T19:31:48;10.80;99.90
37788;DHT22;23627;53.302;-6.362;2023-02-14T19:34:15;10.80;99.90
37788;DHT22;23627;53.302;-6.362;2023-02-14T19:36:41;10.80;99.90
37788;DHT22;23627;53.302;-6.362;2023-02-14T19:39:07;10.80;99.90
37788;DHT22;23627;53.302;-6.362;2023-02-14T19:41:33;10.70;99.90
37788;DHT22;23627;53.302;-6.362;2023-02-14T19:46:59;10.70;99.90
37788;DHT22;23627;53.302;-6.362;2023-02-14T19:49:26;10.70;99.90
37788;DHT22;23627;53.302;-6.362;2023-02-14T19:51:55;10.70;99.90
37788;DHT22;23627;53.302;-6.362;2023-02-14T19:54:40;10.70;99.90
37788;DHT22;23627;53.302;-6.362;2023-02-14T19:57:05;10.70;99.90
37788;DHT22;23627;53.302;-6.362;2023-02-14T19:59:34;10.60;99.90
37788;DHT22;23627;53.302;-6.362;2023-02-14T20:02:02;10.60;99.90
37788;DHT22;23627;53.302;-6.362;2023-02-14T20:04:28;10.60;99.90
37788;DHT22;23627;53.302;-6.362;2023-02-14T20:06:56;10.60;99.90
37788;DHT22;23627;53.302;-6.362;2023-02-14T20:13:05;10.50;99.90
37788;DHT22;23627;53.302;-6.362;2023-02-14T20:15:40;10.50;99.90
37788;DHT22;23627;53.302;-6.362;2023-02-14T20:18:30;10.50;99.90
37788;DHT22;23627;53.302;-6.362;2023-02-14T20:20:56;10.50;99.90
37788;DHT22;23627;53.302;-6.362;2023-02-14T20:23:39;10.50;99.90
37788;DHT22;23627;53.302;-6.362;2023-02-14T20:26:12;10.50;99.90
37788;DHT22;23627;53.302;-6.362;2023-02-14T20:28:38;10.50;99.90
37788;DHT22;23627;53.302;-6.362;2023-02-14T20:31:07;10.50;99.90
37788;DHT22;23627;53.302;-6.362;2023-02-14T20:33:33;10.50;99.90
37788;DHT22;23627;53.302;-6.362;2023-02-14T20:36:09;10.40;99.90
37788;DHT22;23627;53.302;-6.362;2023-02-14T20:38:36;10.40;99.90
37788;DHT22;23627;53.302;-6.362;2023-02-14T20:41:11;10.40;99.90
37788;DHT22;23627;53.302;-6.362;2023-02-14T20:43:38;10.40;99.90
37788;DHT22;23627;53.302;-6.362;2023-02-14T20:46:04;10.40;99.90
37788;DHT22;23627;53.302;-6.362;2023-02-14T20:48:31;10.40;99.90